Time;durP1;ratioP1;P1;durP2;ratioP2;P2;SDS_P1;SDS_P2;PMS_P1;PMS_P2;Temp;Humidity;BMP_temperature;BMP_pressure;BME280_temperature;BME280_humidity;BME280_pressure;Samples;Min_cycle;Max_cycle;Signal;HPM_P1;HPM_P2
2023/10/16 00:01:26;;;;;;;15.80;7.70;;;;;;;11.85;82.21;98349.92;79328;1295;3018966;-61
2023/10/16 00:03:58;;;;;;;12.50;6.10;;;;;;;11.71;83.01;98349.15;78854;1298;3013506;-62
2023/10/16 00:06:24;;;;;;;17.80;7.80;;;;;;;12.15;81.39;98350.61;79683;1295;3015367;-61
2023/10/16 00:08:53;;;;;;;17.70;6.90;;;;;;;12.42;80.06;98345.27;78760;1298;3012932;-63
2023/10/16 00:11:24;;;;;;;15.00;7.70;;;;;;;12.33;80.23;98345.34;79370;1298;3013496;-62
2023/10/16 00:13:54;;;;;;;18.30;7.70;;;;;;;12.10;80.81;98345.52;78183;1294;3067972;-63
2023/10/16 00:16:21;;;;;;;16.80;8.40;;;;;;;11.98;81.69;98347.80;79461;1295;3013242;-64
2023/10/16 00:18:50;;;;;;;20.90;8.50;;;;;;;11.87;82.40;98353.27;79501;1294;3011830;-64
2023/10/16 00:21:18;;;;;;;14.60;7.80;;;;;;;11.69;83.37;98350.33;78207;1298;3053206;-62
2023/10/16 00:23:45;;;;;;;16.20;5.80;;;;;;;11.57;84.16;98351.98;79499;1295;3019023;-63
2023/10/16 00:26:19;;;;;;;12.30;5.90;;;;;;;12.12;83.45;98353.29;79420;1295;3011604;-62
2023/10/16 00:31:51;;;;;;;15.50;6.90;;;;;;;12.50;80.85;98350.08;77849;1306;3052121;-61
2023/10/16 00:34:21;;;;;;;14.50;6.40;;;;;;;12.35;81.40;98346.81;79423;1296;3013601;-65
2023/10/16 00:36:53;;;;;;;10.10;5.30;;;;;;;12.05;83.00;98346.48;79033;1295;3011545;-63
2023/10/16 00:39:20;;;;;;;15.10;6.80;;;;;;;11.78;84.94;98346.96;79760;1295;3013208;-62
2023/10/16 00:41:50;;;;;;;11.50;5.40;;;;;;;11.67;86.38;98343.31;78737;1296;3013352;-65
2023/10/16 00:44:17;;;;;;;14.70;5.30;;;;;;;12.13;85.39;98339.02;79332;1294;3013498;-61
2023/10/16 00:46:48;;;;;;;13.30;6.20;;;;;;;12.50;83.82;98337.10;79372;1295;3011577;-64
2023/10/16 00:49:18;;;;;;;13.60;5.60;;;;;;;12.46;83.15;98331.41;78137;1298;3051937;-64
2023/10/16 00:51:46;;;;;;;14.60;6.70;;;;;;;12.22;83.85;98336.66;79450;1294;3011617;-64
2023/10/16 00:54:19;;;;;;;15.90;7.00;;;;;;;11.90;84.30;98332.49;78974;1295;3013651;-65
2023/10/16 00:56:45;;;;;;;;;;;;;;;11.58;85.65;98329.48;79480;1295;3012005;-64
2023/10/16 00:59:16;;;;;;;15.60;6.60;;;;;;;11.47;86.41;98325.68;78049;1298;3027554;-62
2023/10/16 01:01:46;;;;;;;12.90;6.20;;;;;;;11.33;87.10;98314.70;79656;1297;3011625;-63
2023/10/16 01:04:15;;;;;;;13.60;7.00;;;;;;;11.69;86.48;98311.20;78191;1299;3053509;-62
2023/10/16 01:06:44;;;;;;;16.40;6.80;;;;;;;12.01;84.75;98307.39;79437;1295;3011517;-63
2023/10/16 01:09:24;;;;;;;17.10;7.80;;;;;;;11.99;84.58;98306.45;78193;1300;3026906;-63
2023/10/16 01:11:53;;;;;;;20.80;7.50;;;;;;;11.74;85.46;98299.77;78160;1300;3056495;-61
2023/10/16 01:14:19;;;;;;;15.90;6.40;;;;;;;11.59;86.08;98296.98;79367;1295;3013152;-63
2023/10/16 01:16:46;;;;;;;17.20;7.10;;;;;;;11.46;86.88;98299.09;79454;1294;3011696;-63
2023/10/16 01:19:19;;;;;;;11.00;5.10;;;;;;;11.28;87.90;98297.45;78122;1298;3027609;-62
2023/10/16 01:21:46;;;;;;;13.10;6.20;;;;;;;11.65;86.97;98289.27;79386;1296;3013094;-63
2023/10/16 01:24:14;;;;;;;14.80;6.30;;;;;;;11.87;85.10;98285.73;78143;1295;3069606;-62
2023/10/16 01:26:41;;;;;;;13.50;6.00;;;;;;;11.85;84.64;98280.44;79298;1296;3020684;-63
2023/10/16 01:29:11;;;;;;;15.80;7.20;;;;;;;11.67;85.36;98273.66;79467;1298;3011746;-65
2023/10/16 01:31:40;;;;;;;11.30;6.70;;;;;;;11.38;86.75;98271.37;78238;1295;3053148;-61
2023/10/16 01:34:12;;;;;;;16.70;7.80;;;;;;;11.20;87.72;98265.98;79331;1297;3013546;-63
2023/10/16 01:36:45;;;;;;;12.90;6.50;;;;;;;11.00;88.83;98264.28;78185;1298;3052537;-62
2023/10/16 01:39:47;;;;;;;14.50;7.00;;;;;;;11.35;88.61;98260.77;79319;1298;3011979;-64
2023/10/16 01:42:11;;;;;;;14.70;5.90;;;;;;;11.62;86.38;98262.58;78296;1297;3052795;-61
2023/10/16 01:44:43;;;;;;;15.00;6.60;;;;;;;11.56;86.38;98258.83;78112;1299;3055703;-62
2023/10/16 01:47:16;;;;;;;13.70;6.90;;;;;;;11.27;87.24;98260.13;79359;1298;3013611;-62
2023/10/16 01:49:47;;;;;;;19.20;8.60;;;;;;;11.08;87.49;98261.23;78120;1298;3052068;-61
2023/10/16 01:52:14;;;;;;;13.60;7.40;;;;;;;10.96;87.94;98259.02;79345;1297;3011613;-61
2023/10/16 01:54:47;;;;;;;12.00;6.40;;;;;;;10.78;89.20;98252.58;78992;1295;3011607;-62
2023/10/16 01:57:15;;;;;;;12.50;6.40;;;;;;;11.05;88.51;98251.08;79531;1300;3011517;-63
2023/10/16 01:59:44;;;;;;;14.60;6.90;;;;;;;11.33;87.10;98243.34;78303;1299;3069845;-62
2023/10/16 02:02:12;;;;;;;15.60;7.60;;;;;;;11.23;86.76;98244.05;79500;1295;3015012;-63
2023/10/16 02:04:39;;;;;;;12.90;7.20;;;;;;;11.04;87.51;98241.05;79291;1295;3011578;-69
2023/10/16 02:07:08;;;;;;;18.10;8.10;;;;;;;10.83;88.13;98239.02;78218;1296;3053043;-64
2023/10/16 02:09:38;;;;;;;17.60;8.80;;;;;;;10.69;88.82;98240.20;79209;1298;3013287;-65
2023/10/16 02:12:14;;;;;;;13.30;7.70;;;;;;;10.46;90.00;98234.45;78291;1300;3052743;-64
2023/10/16 02:14:44;;;;;;;17.10;7.30;;;;;;;10.87;88.96;98230.50;78895;1298;3011690;-62
2023/10/16 02:17:21;;;;;;;16.50;7.70;;;;;;;11.16;87.08;98221.59;79402;1294;3013625;-64
2023/10/16 02:19:50;;;;;;;16.50;7.80;;;;;;;11.03;86.83;98219.00;78097;1298;3057869;-62
2023/10/16 02:22:16;;;;;;;15.30;7.00;;;;;;;10.93;87.25;98220.91;79345;1296;3013082;-64
2023/10/16 02:24:44;;;;;;;16.10;8.70;;;;;;;10.73;88.25;98214.08;79461;1294;3011631;-65
2023/10/16 02:27:12;;;;;;;16.40;8.50;;;;;;;10.47;89.62;98207.64;78177;1298;3052247;-63
2023/10/16 02:30:14;;;;;;;15.00;7.30;;;;;;;10.30;91.13;98205.39;79518;1296;3013675;-64
2023/10/16 02:32:29;;;;;;;12.60;6.30;;;;;;;10.80;90.06;98197.93;78183;1294;3051806;-64
2023/10/16 02:34:55;;;;;;;15.00;7.10;;;;;;;11.11;88.35;98195.23;79512;1294;3013077;-64
2023/10/16 02:37:22;;;;;;;13.40;7.50;;;;;;;10.97;88.76;98195.71;79390;1295;3011656;-62
2023/10/16 02:39:50;;;;;;;14.80;8.20;;;;;;;10.65;90.15;98196.16;78253;1298;3050046;-63
2023/10/16 02:42:17;;;;;;;14.30;7.80;;;;;;;10.39;91.34;98185.84;79491;1299;3012662;-62
2023/10/16 02:44:45;;;;;;;19.10;6.90;;;;;;;10.33;91.94;98178.39;79512;1295;3013237;-61
2023/10/16 02:47:13;;;;;;;13.40;6.90;;;;;;;10.52;91.21;98183.72;78257;1298;3052044;-62
2023/10/16 02:49:47;;;;;;;12.90;7.30;;;;;;;10.85;89.94;98186.69;79487;1297;3018669;-62
2023/10/16 02:52:16;;;;;;;;;;;;;;;10.75;89.94;98179.99;78153;1300;3052230;-63
2023/10/16 02:54:46;;;;;;;14.40;7.50;;;;;;;10.54;90.79;98178.16;79400;1294;3013985;-67
2023/10/16 02:57:14;;;;;;;18.70;8.40;;;;;;;10.36;91.49;98179.77;78347;1298;3052673;-64
2023/10/16 02:59:45;;;;;;;13.50;6.70;;;;;;;10.13;92.95;98179.10;79550;1295;3013385;-64
2023/10/16 03:02:22;;;;;;;15.40;7.30;;;;;;;10.52;92.36;98173.59;78233;1298;3056494;-62
2023/10/16 03:04:55;;;;;;;22.90;8.80;;;;;;;10.67;90.64;98168.17;78281;1298;3049930;-63
2023/10/16 03:07:26;;;;;;;18.70;8.90;;;;;;;10.49;91.54;98163.46;78890;1294;3011890;-62
2023/10/16 03:09:52;;;;;;;15.40;8.80;;;;;;;10.29;92.31;98167.54;79399;1296;3018734;-64
2023/10/16 03:12:19;;;;;;;17.80;9.10;;;;;;;10.08;93.40;98166.88;79568;1298;3013394;-66
2023/10/16 03:14:56;;;;;;;18.30;8.50;;;;;;;10.04;94.37;98165.61;78415;1298;3026362;-62
2023/10/16 03:19:57;;;;;;;14.70;8.30;;;;;;;10.76;91.98;98157.15;79596;1295;3011704;-63
2023/10/16 03:22:25;;;;;;;18.90;8.70;;;;;;;10.72;92.15;98151.65;78315;1298;3057738;-66
2023/10/16 03:24:52;;;;;;;17.30;8.40;;;;;;;10.68;92.16;98151.95;79549;1295;3018918;-65
2023/10/16 03:27:38;;;;;;;15.90;8.90;;;;;;;10.51;92.70;98149.55;79406;1295;3012882;-64
2023/10/16 03:30:07;;;;;;;12.60;8.00;;;;;;;10.37;93.56;98147.27;78152;1298;3052778;-64
2023/10/16 03:32:34;;;;;;;18.30;8.20;;;;;;;10.71;92.82;98140.85;79473;1294;3013540;-64
2023/10/16 03:35:05;;;;;;;14.30;8.40;;;;;;;11.02;90.68;98131.83;79405;1294;3012802;-62
2023/10/16 03:37:35;;;;;;;16.40;8.50;;;;;;;11.00;90.35;98130.42;78282;1298;3057543;-62
2023/10/16 03:40:11;;;;;;;16.20;8.60;;;;;;;10.75;91.63;98122.86;79467;1295;3013801;-61
2023/10/16 03:42:40;;;;;;;13.30;8.60;;;;;;;10.53;93.29;98117.48;78211;1297;3050464;-62
2023/10/16 03:45:08;;;;;;;14.50;7.20;;;;;;;10.46;94.86;98118.60;79600;1297;3013058;-63
2023/10/16 03:47:34;;;;;;;16.30;7.80;;;;;;;10.88;93.21;98117.42;79521;1295;3011805;-63
2023/10/16 03:50:03;;;;;;;12.70;8.20;;;;;;;11.12;91.89;98116.14;78219;1298;3050155;-63
2023/10/16 03:52:30;;;;;;;18.20;8.30;;;;;;;11.03;91.55;98106.52;79505;1295;3013135;-62
2023/10/16 03:54:56;;;;;;;15.70;9.00;;;;;;;10.79;92.72;98106.97;79446;1295;3013810;-63
2023/10/16 03:57:24;;;;;;;15.60;9.00;;;;;;;10.66;93.84;98103.50;78147;1299;3050616;-64
2023/10/16 03:59:51;;;;;;;16.20;7.20;;;;;;;10.54;95.58;98101.34;79355;1298;3012985;-64
2023/10/16 04:02:22;;;;;;;12.70;7.40;;;;;;;10.84;94.70;98098.17;79458;1296;3013044;-61
2023/10/16 04:04:54;;;;;;;12.00;6.70;;;;;;;10.98;93.56;98097.71;78210;1298;3050109;-62
2023/10/16 04:07:22;;;;;;;13.90;7.60;;;;;;;11.12;93.80;98092.61;79512;1295;3011662;-64
2023/10/16 04:09:50;;;;;;;12.60;7.60;;;;;;;11.04;93.28;98090.48;78257;1298;3049599;-61
2023/10/16 04:12:21;;;;;;;12.80;8.10;;;;;;;10.76;95.24;98093.02;79377;1297;3013217;-64
2023/10/16 04:14:54;;;;;;;14.20;7.50;;;;;;;10.64;96.50;98087.34;78306;1298;3052527;-63
2023/10/16 04:17:25;;;;;;;15.20;7.20;;;;;;;11.05;94.94;98087.32;79505;1298;3011609;-63
2023/10/16 04:19:59;;;;;;;16.40;7.40;;;;;;;11.33;92.64;98083.34;78192;1298;3069125;-62
2023/10/16 04:22:27;;;;;;;11.50;7.20;;;;;;;11.19;93.19;98076.48;79479;1298;3012065;-62
2023/10/16 04:24:55;;;;;;;14.20;7.60;;;;;;;11.14;93.83;98072.85;78374;1295;3056986;-63
2023/10/16 04:27:34;;;;;;;15.60;7.60;;;;;;;11.01;94.49;98070.40;79558;1298;3013612;-64
2023/10/16 04:46:55;;;;;;;8.30;6.00;;;;;;;11.49;93.95;98072.16;79213;1298;3012655;-62
2023/10/16 04:49:19;;;;;;;10.80;5.90;;;;;;;11.69;92.24;98060.78;78419;1297;3055862;-61
2023/10/16 04:52:01;;;;;;;11.00;6.50;;;;;;;11.73;92.02;98061.49;79630;1300;3014622;-65
2023/10/16 04:54:58;;;;;;;16.60;6.60;;;;;;;11.52;92.87;98065.37;78218;1300;3052256;-62
2023/10/16 05:00:00;;;;;;;7.70;4.70;;;;;;;11.21;95.52;98065.41;79309;1298;3018418;-64
2023/10/16 05:02:34;;;;;;;10.70;5.70;;;;;;;11.77;93.91;98054.62;78272;1300;3050191;-65
2023/10/16 05:07:54;;;;;;;17.90;6.50;;;;;;;12.13;91.66;98040.25;78304;1298;3050642;-65
2023/10/16 05:13:37;;;;;;;10.40;6.80;;;;;;;11.87;93.06;98036.18;78247;1300;3051980;-64
2023/10/16 05:19:03;;;;;;;7.90;6.00;;;;;;;12.38;92.56;98034.84;77853;1303;3051416;-64
2023/10/16 06:14:34;;;;;;;10.30;4.50;;;;;;;13.13;87.43;98000.88;78614;1300;3050979;-61
2023/10/16 06:17:13;;;;;;;8.10;5.00;;;;;;;12.96;88.31;97997.03;78442;1295;3053920;-65
2023/10/16 06:19:42;;;;;;;10.70;3.70;;;;;;;12.89;89.31;97992.03;78196;1295;3068423;-66
2023/10/16 06:22:09;;;;;;;8.80;3.90;;;;;;;13.26;87.72;97992.98;79723;1295;3012979;-65
2023/10/16 06:24:36;;;;;;;9.20;4.70;;;;;;;13.50;86.11;97986.17;79711;1296;3011577;-64
2023/10/16 06:27:12;;;;;;;10.30;4.60;;;;;;;13.41;86.29;97979.76;78345;1298;3053307;-62
2023/10/16 06:29:49;;;;;;;7.70;4.80;;;;;;;13.38;86.38;97970.96;79021;1295;3011586;-61
2023/10/16 06:32:18;;;;;;;9.70;4.40;;;;;;;13.27;86.51;97972.16;78244;1298;3051020;-66
2023/10/16 06:35:00;;;;;;;7.30;3.70;;;;;;;13.09;87.45;97978.72;79556;1298;3013383;-62
2023/10/16 06:37:31;;;;;;;10.10;4.60;;;;;;;13.57;86.48;98000.98;78253;1300;3069523;-63
2023/10/16 06:40:01;;;;;;;7.30;5.40;;;;;;;14.05;83.64;98021.64;79511;1295;3011446;-64
2023/10/16 06:42:29;;;;;;;12.40;6.80;;;;;;;13.86;84.12;98016.65;78238;1300;3057219;-63
2023/10/16 06:45:07;;;;;;;9.60;5.50;;;;;;;13.80;83.93;98008.42;79381;1299;3012638;-64
2023/10/16 06:47:35;;;;;;;13.90;6.40;;;;;;;13.76;84.13;98000.23;78204;1300;3050155;-64
2023/10/16 06:50:35;;;;;;;15.30;5.60;;;;;;;13.70;83.39;98006.56;79639;1300;3018842;-63
2023/10/16 06:53:00;;;;;;;9.00;5.50;;;;;;;13.60;84.34;98004.88;78336;1296;3069470;-62
2023/10/16 06:55:26;;;;;;;9.50;5.40;;;;;;;14.08;83.35;98003.95;79480;1295;3011648;-63
2023/10/16 06:57:54;;;;;;;9.70;6.40;;;;;;;14.29;81.87;98005.95;78283;1296;3026037;-63
2023/10/16 07:00:27;;;;;;;12.20;7.00;;;;;;;14.22;81.70;98004.52;79616;1298;3013055;-63
2023/10/16 07:02:56;;;;;;;12.80;6.40;;;;;;;13.78;82.47;97997.72;78257;1298;3050492;-63
2023/10/16 07:05:42;;;;;;;14.20;9.10;;;;;;;13.44;84.17;98003.23;79656;1295;3015664;-64
2023/10/16 07:08:11;;;;;;;12.30;6.50;;;;;;;13.04;84.38;98008.08;78202;1295;3070448;-62
2023/10/16 07:10:41;;;;;;;2.80;2.00;;;;;;;12.53;83.60;98012.80;79435;1297;3011444;-67
2023/10/16 07:13:09;;;;;;;2.20;1.10;;;;;;;12.23;82.94;98008.52;78142;1298;3048794;-64
2023/10/16 07:15:35;;;;;;;1.70;1.00;;;;;;;12.21;81.87;98004.58;79470;1299;3012834;-67
2023/10/16 07:18:05;;;;;;;2.50;1.30;;;;;;;12.03;82.01;98003.37;79653;1300;3011918;-65
2023/10/16 07:20:35;;;;;;;3.00;1.50;;;;;;;11.72;83.10;98004.73;78308;1308;3052413;-63
2023/10/16 07:23:03;;;;;;;3.20;1.70;;;;;;;11.21;85.47;98001.23;79883;1299;3012777;-65
2023/10/16 07:25:47;;;;;;;1.60;0.90;;;;;;;10.86;87.18;98008.50;79507;1294;3011594;-65
2023/10/16 07:28:16;;;;;;;0.70;0.50;;;;;;;10.74;88.63;98001.98;78534;1295;3056515;-67
2023/10/16 07:30:43;;;;;;;1.90;1.30;;;;;;;10.83;87.43;98007.16;79625;1295;3013413;-65
2023/10/16 07:33:17;;;;;;;2.80;1.30;;;;;;;10.63;87.45;98011.63;79646;1301;3011593;-63
2023/10/16 07:35:49;;;;;;;3.00;1.60;;;;;;;10.41;88.34;98011.27;78454;1298;6335212;-63
2023/10/16 07:38:20;;;;;;;3.00;1.80;;;;;;;10.18;90.12;98012.48;79511;1296;3013311;-62
2023/10/16 07:40:52;;;;;;;4.80;1.60;;;;;;;10.09;90.40;98028.81;78229;1295;3069620;-62
2023/10/16 07:43:29;;;;;;;4.40;1.90;;;;;;;10.28;90.30;98031.81;79431;1299;3013053;-62
2023/10/16 07:49:15;;;;;;;3.90;2.40;;;;;;;10.34;89.12;98023.46;78404;1296;3049174;-64
2023/10/16 07:51:34;;;;;;;1.40;0.80;;;;;;;9.87;89.36;98046.84;78495;1296;3054275;-61
2023/10/16 07:54:00;;;;;;;3.70;0.80;;;;;;;9.61;90.09;98039.14;79521;1308;3013509;-64
2023/10/16 07:56:32;;;;;;;2.20;1.00;;;;;;;9.40;91.50;98054.00;79502;1298;3013591;-67
2023/10/16 07:59:07;;;;;;;1.40;0.60;;;;;;;9.78;89.96;98076.41;78227;1296;3069306;-61
2023/10/16 08:01:43;;;;;;;3.00;0.80;;;;;;;9.50;87.40;98067.72;79011;1295;3013484;-67
2023/10/16 08:07:46;;;;;;;3.40;1.80;;;;;;;8.36;93.38;98063.11;78385;1295;3056444;-64
2023/10/16 08:09:49;;;;;;;4.20;1.50;;;;;;;8.12;95.14;98053.50;78228;1301;3049943;-64
2023/10/16 08:12:35;;;;;;;10.30;1.30;;;;;;;8.63;93.27;98056.21;79441;1299;3011578;-65
2023/10/16 08:15:14;;;;;;;1.70;0.80;;;;;;;8.36;92.04;98094.27;78446;1294;3051056;-64
2023/10/16 08:17:46;;;;;;;4.10;0.90;;;;;;;8.17;92.02;98096.73;78305;1299;3052853;-63
2023/10/16 08:20:19;;;;;;;4.90;2.90;;;;;;;8.05;92.98;98098.63;79347;1298;3011966;-64
2023/10/16 08:22:47;;;;;;;5.50;2.50;;;;;;;7.69;93.50;98104.84;78116;1298;3070531;-66
2023/10/16 08:25:30;;;;;;;5.90;2.50;;;;;;;7.81;94.89;98085.17;79730;1297;3013643;-63
2023/10/16 08:28:18;;;;;;;5.60;1.30;;;;;;;8.03;92.86;98093.02;78375;1294;3048806;-69
2023/10/16 08:33:16;;;;;;;2.90;0.80;;;;;;;7.45;93.65;98121.12;79833;1298;3012923;-64
2023/10/16 08:35:45;;;;;;;1.50;0.80;;;;;;;7.24;94.84;98103.94;79100;1298;3011834;-63
2023/10/16 08:38:20;;;;;;;1.60;0.90;;;;;;;7.63;94.19;98104.90;79583;1295;3018843;-63
2023/10/16 08:40:57;;;;;;;1.60;0.50;;;;;;;7.52;93.32;98106.02;78192;1298;3053075;-62
2023/10/16 08:43:52;;;;;;;3.10;0.90;;;;;;;7.15;93.94;98133.98;78293;1298;3056514;-62
2023/10/16 08:46:34;;;;;;;1.20;0.60;;;;;;;6.85;96.00;98123.46;78179;1300;3049244;-67
2023/10/16 08:49:03;;;;;;;1.50;0.50;;;;;;;7.17;95.59;98147.48;78354;1296;3053927;-65
2023/10/16 08:51:30;;;;;;;2.00;0.30;;;;;;;7.15;95.19;98154.89;79688;1301;3013686;-70
2023/10/16 08:54:01;;;;;;;2.20;0.50;;;;;;;7.00;95.33;98136.37;79780;1298;3011560;-69
2023/10/16 08:56:30;;;;;;;1.30;0.30;;;;;;;6.69;96.62;98135.84;78485;1296;3068073;-71
2023/10/16 08:58:57;;;;;;;1.00;0.40;;;;;;;6.81;97.83;98123.03;79619;1294;3013586;-67
2023/10/16 09:01:27;;;;;;;5.10;2.70;;;;;;;7.08;96.34;98122.61;79611;1295;3011693;-69
2023/10/16 09:04:05;;;;;;;1.40;0.50;;;;;;;7.08;97.08;98111.49;78427;1295;3053261;-72
2023/10/16 09:06:37;;;;;;;1.10;0.50;;;;;;;6.67;97.37;98131.48;78470;1294;3050034;-73
2023/10/16 09:09:12;;;;;;;1.90;0.40;;;;;;;6.59;98.76;98121.38;79640;1295;3013436;-69
2023/10/16 09:11:43;;;;;;;2.00;0.50;;;;;;;7.10;97.66;98114.67;78500;1298;3052371;-69
2023/10/16 09:14:17;;;;;;;3.00;0.80;;;;;;;7.19;96.01;98108.61;79622;1295;3011480;-70
2023/10/16 09:16:47;;;;;;;3.60;0.90;;;;;;;7.01;95.83;98107.60;78403;1298;3053362;-71
2023/10/16 09:19:14;;;;;;;1.50;0.80;;;;;;;6.98;96.43;98118.98;79700;1295;3014664;-72
2023/10/16 09:21:44;;;;;;;0.40;0.40;;;;;;;6.89;96.00;98141.45;79647;1295;3013145;-68
2023/10/16 09:24:13;;;;;;;0.40;0.40;;;;;;;7.07;94.73;98118.48;78485;1299;3048637;-71
2023/10/16 09:26:45;;;;;;;0.60;0.50;;;;;;;7.02;94.55;98134.52;79666;1298;3013371;-70
2023/10/16 09:29:20;;;;;;;2.00;0.70;;;;;;;6.84;95.48;98128.40;78493;1298;3069377;-73
2023/10/16 09:31:49;;;;;;;1.90;0.60;;;;;;;6.72;96.07;98129.19;79163;1295;3011708;-71
2023/10/16 09:34:25;;;;;;;2.00;0.50;;;;;;;6.86;96.29;98116.23;79642;1300;3012991;-72
2023/10/16 09:39:40;;;;;;;1.40;0.70;;;;;;;6.97;94.90;98130.31;78664;1299;3054455;-75
2023/10/16 09:42:13;;;;;;;1.20;0.60;;;;;;;6.84;94.99;98150.18;79625;1297;3013217;-68
2023/10/16 09:44:41;;;;;;;3.10;0.50;;;;;;;6.60;95.51;98165.66;78495;1296;3053430;-71
2023/10/16 09:47:25;;;;;;;1.80;0.40;;;;;;;6.83;95.13;98159.62;79656;1294;3011558;-69
2023/10/16 09:49:58;;;;;;;1.10;0.50;;;;;;;6.84;93.51;98166.48;78705;1295;3051719;-69
2023/10/16 09:52:25;;;;;;;1.20;0.40;;;;;;;6.55;94.17;98160.59;80024;1298;3013030;-69
2023/10/16 09:54:53;;;;;;;0.40;0.20;;;;;;;6.28;94.93;98171.31;78513;1295;3048735;-68
2023/10/16 09:57:22;;;;;;;1.30;0.40;;;;;;;6.48;95.83;98170.05;79688;1294;3013445;-68
2023/10/16 10:02:40;;;;;;;0.90;0.30;;;;;;;6.35;92.79;98188.31;78382;1300;3052526;-72
2023/10/16 10:05:09;;;;;;;1.60;0.60;;;;;;;6.00;93.90;98175.16;79424;1297;3013401;-73
2023/10/16 10:07:47;;;;;;;1.20;0.60;;;;;;;5.79;95.36;98193.62;79082;1295;3011804;-72
2023/10/16 10:13:09;;;;;;;2.70;0.60;;;;;;;6.30;93.19;98188.92;78364;1294;3049556;-72
2023/10/16 10:15:44;;;;;;;0.70;0.50;;;;;;;6.20;94.17;98169.39;78400;1295;3053720;-74
2023/10/16 10:18:32;;;;;;;1.70;0.50;;;;;;;6.10;94.19;98186.21;78960;1295;3011659;-75
2023/10/16 10:21:02;;;;;;;1.30;0.70;;;;;;;6.02;94.86;98182.35;78330;1295;3050636;-74
2023/10/16 10:23:32;;;;;;;0.50;0.40;;;;;;;6.58;94.07;98192.19;79568;1298;3013076;-72
2023/10/16 10:26:05;;;;;;;3.50;0.70;;;;;;;6.71;92.47;98187.56;78456;1298;3052296;-74
2023/10/16 10:28:40;;;;;;;0.90;0.40;;;;;;;6.62;92.09;98193.00;79713;1296;3011642;-74
2023/10/16 10:31:11;;;;;;;0.50;0.40;;;;;;;6.40;91.22;98217.52;78378;1298;3051425;-73
2023/10/16 10:33:42;;;;;;;0.50;0.40;;;;;;;5.91;92.01;98193.63;79641;1294;3012739;-75
2023/10/16 10:36:29;;;;;;;1.60;0.40;;;;;;;6.07;92.17;98204.77;78675;1299;3049325;-74
2023/10/16 10:39:22;;;;;;;1.90;0.40;;;;;;;6.38;90.37;98210.88;78215;1296;3052335;-75
2023/10/16 10:41:53;;;;;;;0.50;0.30;;;;;;;6.31;89.26;98208.34;78426;1300;3051167;-74
2023/10/16 10:44:45;;;;;;;0.70;0.50;;;;;;;6.08;90.40;98225.40;79525;1300;3011908;-76
2023/10/16 10:47:24;;;;;;;0.40;0.40;;;;;;;6.03;91.07;98231.67;78454;1302;3052755;-77
2023/10/16 10:49:52;;;;;;;1.10;0.70;;;;;;;6.16;90.76;98241.46;78300;1295;3069009;-74
2023/10/16 10:52:20;;;;;;;1.60;0.60;;;;;;;6.60;89.34;98240.47;79584;1295;3011638;-77
2023/10/16 10:54:57;;;;;;;3.20;1.80;;;;;;;6.52;88.69;98249.86;79668;1295;3011744;-76
2023/10/16 10:57:26;;;;;;;5.80;2.80;;;;;;;6.32;89.90;98252.44;78279;1300;3053250;-76
2023/10/16 10:59:56;;;;;;;5.00;2.20;;;;;;;6.20;90.53;98255.84;79558;1298;3012895;-76
2023/10/16 11:05:18;;;;;;;;;;;;;;;;;;;;;
2023/10/16 11:07:46;;;;;;;5.50;2.30;;;;;;;6.71;87.81;98278.73;78444;1294;3050837;-75
2023/10/16 11:10:13;;;;;;;7.20;2.70;;;;;;;6.47;86.82;98280.40;79526;1303;3013014;-75
2023/10/16 11:12:39;;;;;;;5.90;2.90;;;;;;;6.06;87.58;98288.11;79649;1298;3011625;-75
2023/10/16 11:15:11;;;;;;;6.70;3.40;;;;;;;5.73;88.73;98291.11;78519;1298;3025846;-78
2023/10/16 11:17:37;;;;;;;5.00;2.40;;;;;;;5.67;89.50;98289.90;79848;1296;3011583;-78
2023/10/16 11:20:39;;;;;;;9.70;3.50;;;;;;;5.62;90.16;98296.14;78654;1298;3026935;-77
2023/10/16 11:23:00;;;;;;;11.70;5.20;;;;;;;6.16;87.51;98294.98;78458;1295;3067024;-76
2023/10/16 11:25:30;;;;;;;8.70;4.30;;;;;;;6.16;86.81;98298.63;79837;1294;3012608;-77
2023/10/16 11:28:07;;;;;;;11.50;5.60;;;;;;;5.82;88.11;98296.50;78637;1294;3048726;-77
2023/10/16 11:30:41;;;;;;;5.20;3.00;;;;;;;5.63;88.73;98303.89;78705;1294;3052520;-76
2023/10/16 11:33:12;;;;;;;8.20;4.40;;;;;;;5.41;89.17;98307.42;79365;1298;3012013;-78
2023/10/16 11:35:46;;;;;;;10.00;4.80;;;;;;;5.67;88.69;98304.66;79740;1295;3013326;-78
2023/10/16 11:38:28;;;;;;;8.20;4.50;;;;;;;5.93;87.06;98321.94;78343;1300;3051735;-76
2023/10/16 11:40:57;;;;;;;11.60;5.20;;;;;;;5.69;87.95;98303.21;78394;1301;3054525;-80
2023/10/16 11:43:24;;;;;;;7.90;4.10;;;;;;;5.51;88.85;98295.40;79900;1295;3013448;-76
2023/10/16 11:45:53;;;;;;;7.50;2.80;;;;;;;5.34;89.45;98314.40;79706;1294;3011428;-73
2023/10/16 11:50:58;;;;;;;8.70;3.30;;;;;;;5.74;88.37;98323.04;79672;1300;3011343;-77
2023/10/16 11:53:28;;;;;;;8.50;4.00;;;;;;;5.80;87.33;98315.57;78522;1298;3050830;-78
2023/10/16 11:55:56;;;;;;;15.30;6.20;;;;;;;5.88;87.80;98316.64;79937;1297;3011925;-76
2023/10/16 11:58:24;;;;;;;22.40;8.10;;;;;;;5.58;88.44;98333.68;78368;1299;3026812;-74
2023/10/16 12:00:54;;;;;;;15.90;6.20;;;;;;;5.44;88.98;98357.61;79652;1300;3013082;-77
2023/10/16 12:03:26;;;;;;;17.70;7.20;;;;;;;5.40;89.98;98351.73;79177;1294;3011894;-79
2023/10/16 12:05:55;;;;;;;14.00;5.70;;;;;;;5.97;88.50;98347.92;79738;1295;3012234;-77
2023/10/16 12:08:23;;;;;;;9.40;3.60;;;;;;;5.97;87.87;98347.59;78587;1300;3049949;-75
2023/10/16 12:10:50;;;;;;;10.60;4.70;;;;;;;5.84;88.15;98359.99;79701;1298;3011566;-77
2023/10/16 12:13:19;;;;;;;9.00;3.60;;;;;;;5.85;88.86;98347.05;79662;1298;3012025;-74
2023/10/16 12:15:47;;;;;;;4.60;2.00;;;;;;;5.78;89.47;98353.91;78430;1295;3051489;-75
2023/10/16 12:18:14;;;;;;;2.40;1.40;;;;;;;5.71;89.90;98351.52;79725;1294;3011705;-76
2023/10/16 12:20:41;;;;;;;2.70;1.60;;;;;;;6.14;88.72;98366.08;79753;1294;3011632;-75
2023/10/16 12:23:10;;;;;;;2.20;1.30;;;;;;;6.42;86.36;98380.55;78433;1295;3025330;-76
2023/10/16 12:25:36;;;;;;;3.70;1.00;;;;;;;6.20;86.47;98373.35;79767;1299;3013580;-76
2023/10/16 12:28:07;;;;;;;1.50;1.00;;;;;;;6.17;86.25;98398.06;79607;1295;3012307;-77
2023/10/16 12:30:36;;;;;;;2.90;0.90;;;;;;;6.05;86.60;98382.42;78460;1299;3051747;-75
2023/10/16 12:33:06;;;;;;;2.90;1.60;;;;;;;5.79;88.01;98382.90;79655;1294;3013704;-78
2023/10/16 12:35:34;;;;;;;5.50;2.10;;;;;;;5.71;88.91;98398.08;78357;1294;3056808;-74
2023/10/16 12:38:04;;;;;;;4.00;1.50;;;;;;;6.29;87.17;98404.31;79701;1295;3015079;-74
2023/10/16 12:40:40;;;;;;;5.10;1.60;;;;;;;6.64;85.24;98400.98;78483;1300;3050060;-75
2023/10/16 12:43:09;;;;;;;3.70;1.70;;;;;;;6.55;85.41;98412.12;79142;1299;3011698;-73
2023/10/16 12:45:39;;;;;;;3.90;1.60;;;;;;;6.38;85.98;98406.52;79574;1298;3011867;-73
2023/10/16 12:48:08;;;;;;;1.70;0.90;;;;;;;6.19;86.75;98421.63;79286;1294;3011796;-76
2023/10/16 12:50:34;;;;;;;4.00;0.80;;;;;;;5.94;87.95;98423.04;79793;1295;3018599;-79
2023/10/16 12:53:01;;;;;;;2.90;1.10;;;;;;;5.88;88.47;98417.64;79784;1295;3011335;-75
2023/10/16 12:55:29;;;;;;;7.10;2.80;;;;;;;6.52;87.22;98418.55;78484;1294;3026743;-74
2023/10/16 12:57:55;;;;;;;8.30;2.60;;;;;;;6.92;85.02;98432.20;79659;1295;3013308;-79
2023/10/16 13:00:23;;;;;;;2.60;1.60;;;;;;;6.78;84.35;98434.42;79764;1299;3012965;-75
2023/10/16 13:02:51;;;;;;;4.40;2.50;;;;;;;6.62;85.04;98432.45;78485;1294;3052870;-74
2023/10/16 13:05:18;;;;;;;4.80;1.80;;;;;;;6.46;85.42;98444.67;79815;1294;3013039;-79
2023/10/16 13:07:47;;;;;;;1.30;0.80;;;;;;;6.27;86.73;98444.63;79812;1294;3011829;-71
2023/10/16 13:10:16;;;;;;;1.70;0.60;;;;;;;6.27;87.64;98448.95;78635;1294;3049217;-73
2023/10/16 13:12:43;;;;;;;2.10;0.30;;;;;;;6.78;85.71;98452.14;79841;1294;3013295;-75
2023/10/16 13:15:16;;;;;;;0.90;0.40;;;;;;;6.88;84.53;98456.95;79328;1298;3013437;-75
2023/10/16 13:17:44;;;;;;;1.90;0.50;;;;;;;6.82;84.20;98470.19;79785;1295;3013616;-75
2023/10/16 13:20:17;;;;;;;0.80;0.40;;;;;;;6.54;85.35;98460.91;78534;1299;3026138;-74
2023/10/16 13:22:52;;;;;;;0.50;0.30;;;;;;;6.41;86.29;98474.21;79701;1297;3014064;-77
2023/10/16 13:25:25;;;;;;;0.80;0.30;;;;;;;6.33;87.05;98474.17;78511;1299;3052520;-75
2023/10/16 13:27:52;;;;;;;0.70;0.40;;;;;;;6.77;85.50;98477.98;79977;1295;3011524;-75